createdAt,value
2019-05-05T11:10:06.176Z,7.10
2019-05-05T11:12:36.639Z,10.20
2019-05-05T11:15:07.140Z,8.27
2019-05-05T11:17:36.787Z,5.77
2019-05-05T11:20:06.807Z,6.17
2019-05-05T11:22:36.464Z,7.03
2019-05-05T11:25:06.383Z,8.37
2019-05-05T11:27:35.868Z,6.10
2019-05-05T11:30:26.816Z,9.23
2019-05-05T11:33:14.315Z,9.20
2019-05-05T11:35:53.777Z,7.47
2019-05-05T11:38:24.734Z,7.10
2019-05-05T11:40:54.782Z,7.27
2019-05-05T11:43:24.892Z,6.70
2019-05-05T11:45:54.650Z,8.67
2019-05-05T11:48:24.557Z,11.53
2019-05-05T11:50:55.042Z,10.50
2019-05-05T11:53:25.160Z,7.93
2019-05-05T11:55:55.303Z,8.30
2019-05-05T11:58:25.180Z,9.17
2019-05-05T12:00:54.895Z,8.70
2019-05-05T12:03:24.749Z,8.67
2019-05-05T12:05:54.160Z,9.60
2019-05-05T12:08:23.900Z,8.73
2019-05-05T12:10:55.532Z,6.07
2019-05-05T12:13:25.256Z,11.67
2019-05-05T12:16:04.340Z,9.27
2019-05-05T12:18:34.257Z,9.87
2019-05-05T12:21:05.216Z,14.37
2019-05-05T12:23:35.318Z,8.83
2019-05-05T12:29:05.580Z,11.87
2019-05-05T12:31:36.437Z,11.20
2019-05-05T12:34:05.897Z,10.97
2019-05-05T12:36:35.551Z,14.30
2019-05-05T12:39:08.283Z,11.40
2019-05-05T12:41:37.719Z,25.87
2019-05-05T12:44:08.303Z,17.37
2019-05-05T12:46:54.352Z,7.97
2019-05-05T12:49:25.421Z,10.37
2019-05-05T12:51:55.539Z,9.03
2019-05-05T12:54:25.356Z,9.37
2019-05-05T12:56:55.009Z,8.00
2019-05-05T12:59:26.340Z,6.37
2019-05-05T13:01:55.810Z,6.07
2019-05-05T13:04:25.342Z,13.53
2019-05-05T13:06:55.035Z,7.77
2019-05-05T13:09:24.688Z,8.47
2019-05-05T13:11:54.559Z,5.87
2019-05-05T13:14:24.212Z,7.77
2019-05-05T13:16:56.057Z,9.07
2019-05-05T13:19:26.635Z,6.33
2019-05-05T13:22:00.569Z,6.27
2019-05-05T13:24:40.635Z,6.17
2019-05-05T13:27:19.250Z,8.07
2019-05-05T13:29:44.276Z,6.13
2019-05-05T13:32:14.392Z,12.23
2019-05-05T13:34:44.457Z,10.10
2019-05-05T13:37:14.195Z,8.17
2019-05-05T13:39:44.544Z,6.57
2019-05-05T13:42:14.359Z,10.70
2019-05-05T13:44:51.288Z,6.43
2019-05-05T13:47:20.939Z,8.30
2019-05-05T13:49:54.180Z,5.60
2019-05-05T13:52:24.369Z,7.33
2019-05-05T13:54:55.548Z,7.00
2019-05-05T13:57:25.032Z,8.77
2019-05-05T13:59:54.691Z,7.20
2019-05-05T14:02:24.618Z,6.60
2019-05-05T14:04:54.876Z,5.57
2019-05-05T14:07:24.231Z,7.57
2019-05-05T14:09:54.902Z,9.37
2019-05-05T14:12:25.500Z,9.20
2019-05-05T14:14:54.783Z,7.73
2019-05-05T14:17:25.067Z,7.30
2019-05-05T14:20:04.491Z,6.17
2019-05-05T14:22:26.887Z,8.17
2019-05-05T14:25:01.204Z,8.23
2019-05-05T14:27:31.223Z,5.17
2019-05-05T14:30:17.355Z,7.93
2019-05-05T14:32:47.307Z,7.57
2019-05-05T14:35:34.633Z,4.87
2019-05-05T14:38:23.779Z,5.70
2019-05-05T14:40:53.767Z,8.30
2019-05-05T14:43:23.991Z,6.00
2019-05-05T14:45:54.646Z,6.00
2019-05-05T14:48:24.512Z,5.13
2019-05-05T14:50:54.384Z,6.33
2019-05-05T14:53:24.201Z,6.00
2019-05-05T14:55:53.923Z,5.67
2019-05-05T14:58:23.580Z,6.63
2019-05-05T15:00:54.576Z,7.23
2019-05-05T15:03:24.285Z,4.70
2019-05-05T15:06:07.371Z,5.93
2019-05-05T15:08:38.419Z,4.53
2019-05-05T15:11:09.512Z,4.87
2019-05-05T15:13:39.235Z,6.07
2019-05-05T15:16:10.214Z,3.70
2019-05-05T15:18:39.952Z,5.37
2019-05-05T15:21:09.403Z,4.23
2019-05-05T15:23:39.055Z,5.73
2019-05-05T15:26:08.703Z,3.50
2019-05-05T15:28:38.419Z,5.30
2019-05-05T15:31:08.142Z,3.87
2019-05-05T15:33:37.543Z,5.57
2019-05-05T15:36:06.760Z,9.30
2019-05-05T15:38:36.230Z,8.20
2019-05-05T15:41:05.948Z,6.37
2019-05-05T15:43:35.672Z,5.90
2019-05-05T15:46:05.416Z,16.77
2019-05-05T15:49:17.967Z,7.60
2019-05-05T15:51:47.699Z,7.30
2019-05-05T15:54:17.362Z,11.70
2019-05-05T15:56:47.007Z,9.17
2019-05-05T15:59:16.657Z,8.47
2019-05-05T16:01:46.308Z,8.63
2019-05-05T16:04:15.955Z,8.83
2019-05-05T16:06:45.612Z,6.93
2019-05-05T16:09:15.255Z,6.77
2019-05-05T16:11:46.768Z,6.37
2019-05-05T16:14:16.252Z,6.53
2019-05-05T16:17:06.335Z,10.33
2019-05-05T16:19:36.725Z,6.67
2019-05-05T16:22:08.007Z,6.23
2019-05-05T16:24:39.361Z,6.07
2019-05-05T18:23:16.129Z,7.00
2019-05-05T18:25:46.211Z,5.93
2019-05-05T18:28:19.689Z,7.47
2019-05-05T18:30:46.580Z,3.63
2019-05-05T18:33:16.227Z,4.30
2019-05-05T18:35:45.882Z,8.83
2019-05-05T18:38:15.288Z,3.00
2019-05-05T18:40:45.821Z,6.93
2019-05-05T18:43:16.935Z,4.77
2019-05-05T18:45:48.030Z,4.63
2019-05-05T18:48:17.751Z,10.67
2019-05-05T18:50:47.415Z,5.20
2019-05-05T18:53:16.895Z,6.57
2019-05-05T18:55:46.939Z,4.90
2019-05-05T18:58:26.917Z,3.60
2019-05-05T19:01:08.428Z,6.90
2019-05-05T19:03:45.788Z,4.27
2019-05-05T19:06:16.837Z,6.23
2019-05-05T19:08:54.250Z,7.17
2019-05-05T19:11:19.292Z,5.10
2019-05-05T19:13:48.944Z,7.47
2019-05-05T19:16:18.616Z,10.33
2019-05-05T19:18:48.324Z,6.93
2019-05-05T19:21:24.889Z,33.50
2019-05-05T19:23:54.600Z,153.77
2019-05-05T19:26:24.500Z,100.77
2019-05-05T19:28:54.817Z,89.10
2019-05-05T19:31:24.722Z,97.60
2019-05-05T19:33:55.930Z,95.67
2019-05-05T19:36:27.445Z,105.33
2019-05-05T19:38:56.377Z,104.47
2019-05-05T19:41:26.039Z,106.10
2019-05-05T19:43:55.719Z,105.83
2019-05-05T19:46:27.024Z,89.50
2019-05-05T19:49:15.923Z,90.40
2019-05-05T19:51:46.783Z,85.95
2019-05-05T19:54:16.012Z,89.63
2019-05-05T19:56:45.800Z,95.40
2019-05-05T19:59:15.281Z,81.67
2019-05-05T20:01:45.128Z,75.20
2019-05-05T20:04:14.791Z,70.97
2019-05-05T20:06:44.503Z,72.43
2019-05-05T20:09:14.396Z,73.80
2019-05-05T20:11:44.368Z,60.43
2019-05-05T20:14:15.113Z,68.27
2019-05-05T20:17:04.347Z,57.93
2019-05-05T20:19:35.705Z,60.03
2019-05-05T20:22:05.126Z,56.93
2019-05-05T20:24:34.600Z,56.23
2019-05-05T20:27:04.644Z,52.00
2019-05-05T20:29:37.316Z,51.27
2019-05-05T20:32:06.202Z,48.05
2019-05-05T20:34:43.503Z,50.40
2019-05-05T20:37:14.919Z,48.63
2019-05-05T20:39:44.589Z,48.57
2019-05-05T20:42:14.875Z,42.97
2019-05-05T20:44:44.651Z,44.20
2019-05-05T20:47:14.204Z,43.20
2019-05-05T20:49:44.405Z,40.77
2019-05-05T20:52:14.421Z,43.53
2019-05-05T20:54:44.226Z,40.47
2019-05-05T20:57:14.214Z,41.97
2019-05-05T20:59:44.527Z,44.23
2019-05-05T21:02:14.641Z,43.80
2019-05-05T21:04:44.655Z,38.10
2019-05-05T21:07:15.365Z,40.17
2019-05-05T21:09:44.904Z,43.47
2019-05-05T21:12:14.575Z,40.57
2019-05-05T21:14:44.769Z,32.57
2019-05-05T21:17:14.821Z,35.63
2019-05-05T21:19:44.872Z,33.40
2019-05-05T21:22:34.283Z,32.07
2019-05-05T21:25:24.999Z,34.10
2019-05-05T21:27:54.671Z,32.83
2019-05-05T21:30:25.919Z,31.30
2019-05-05T21:32:55.618Z,33.03
2019-05-05T21:35:25.332Z,31.20
2019-05-05T21:37:54.992Z,27.43
2019-05-05T21:40:25.528Z,31.77
2019-05-05T21:42:55.289Z,27.47
2019-05-05T21:45:24.827Z,29.17
2019-05-05T21:47:54.944Z,29.80
2019-05-05T21:50:33.917Z,26.17
2019-05-05T21:53:17.412Z,24.70
2019-05-05T21:55:50.831Z,24.80
2019-05-05T21:58:23.282Z,26.17
2019-05-05T22:00:55.027Z,24.50
2019-05-05T22:03:35.280Z,24.00
2019-05-05T22:06:05.457Z,24.80
2019-05-05T22:08:35.639Z,21.83
2019-05-05T22:11:05.728Z,24.87
2019-05-05T22:13:36.570Z,22.70
2019-05-05T22:16:06.609Z,23.83
2019-05-05T22:18:36.188Z,22.30
2019-05-05T22:21:07.321Z,21.40
2019-05-05T22:23:37.107Z,22.00
2019-05-05T22:26:06.852Z,20.60
